| time (UTC) | temp F | wind direction | speed MPH | gust MPH | rain 1hr in | rain 24hr in | rain mn in | humidity % | barometer mb |
| 20260506001551 | 74 | 189 | 1.0 | 11.0 | 0.00 | 0.00 | 0.00 | 41 | 1009.1 |
| 20260506000052 | 75 | 188 | 1.0 | 10.0 | 0.00 | 0.00 | 0.00 | 41 | 1009.0 |
| 20260505234552 | 76 | 159 | 1.0 | 12.0 | 0.00 | 0.00 | 0.00 | 40 | 1008.8 |
| 20260505233050 | 76 | 0 | 1.0 | 11.0 | 0.00 | 0.00 | 0.00 | 38 | 1008.8 |
| 20260505231549 | 77 | 217 | 3.0 | 15.0 | 0.00 | 0.00 | 0.00 | 34 | 1008.7 |
| 20260505224551 | 78 | 200 | 5.0 | 22.0 | 0.00 | 0.00 | 0.00 | 32 | 1008.5 |
| 20260505223106 | 79 | 154 | 4.0 | 23.0 | 0.00 | 0.00 | 0.00 | 30 | 1008.5 |
| 20260505221551 | 79 | 211 | 6.0 | 15.0 | 0.00 | 0.00 | 0.00 | 31 | 1008.5 |
| 20260505220056 | 79 | 218 | 5.0 | 16.0 | 0.00 | 0.00 | 0.00 | 30 | 1008.3 |
| 20260505214553 | 79 | 215 | 5.0 | 19.0 | 0.00 | 0.00 | 0.00 | 30 | 1008.4 |
| 20260505213058 | 80 | 170 | 5.0 | 14.0 | 0.00 | 0.00 | 0.00 | 29 | 1008.1 |
| 20260505211556 | 79 | 225 | 6.0 | 17.0 | 0.00 | 0.00 | 0.00 | 29 | 1008.1 |
| 20260505210054 | 80 | 223 | 5.0 | 19.0 | 0.00 | 0.00 | 0.00 | 28 | 1008.2 |
| 20260505204606 | 81 | 209 | 6.0 | 20.0 | 0.00 | 0.00 | 0.00 | 28 | 1008.0 |
| 20260505203100 | 81 | 163 | 4.0 | 17.0 | 0.00 | 0.00 | 0.00 | 27 | 1008.3 |
| 20260505201556 | 81 | 220 | 7.0 | 19.0 | 0.00 | 0.00 | 0.00 | 27 | 1008.5 |
| 20260505200051 | 81 | 227 | 9.0 | 17.0 | 0.00 | 0.00 | 0.00 | 27 | 1008.6 |
| 20260505194603 | 81 | 234 | 8.0 | 25.0 | 0.00 | 0.00 | 0.00 | 27 | 1008.6 |
| 20260505193052 | 81 | 258 | 6.0 | 18.0 | 0.00 | 0.00 | 0.00 | 27 | 1008.7 |
| 20260505191551 | 81 | 213 | 8.0 | 17.0 | 0.00 | 0.00 | 0.00 | 27 | 1008.7 |
| 20260505190050 | 82 | 219 | 4.0 | 19.0 | 0.00 | 0.00 | 0.00 | 30 | 1009.0 |
| 20260505184548 | 81 | 180 | 6.0 | 15.0 | 0.00 | 0.00 | 0.00 | 29 | 1009.2 |
| 20260505183059 | 81 | 215 | 5.0 | 20.0 | 0.00 | 0.00 | 0.00 | 31 | 1009.4 |
| 20260505181555 | 82 | 235 | 5.0 | 15.0 | 0.00 | 0.00 | 0.00 | 32 | 1009.6 |
| 20260505180056 | 81 | 0 | 5.0 | 16.0 | 0.00 | 0.00 | 0.00 | 35 | 1009.7 |
| 20260505174558 | 81 | 219 | 6.0 | 16.0 | 0.00 | 0.00 | 0.00 | 32 | 1009.9 |
| 20260505173052 | 81 | 180 | 4.0 | 15.0 | 0.00 | 0.00 | 0.00 | 37 | 1010.0 |
| 20260505171555 | 81 | 225 | 3.0 | 13.0 | 0.00 | 0.00 | 0.00 | 34 | 1010.0 |
| 20260505170057 | 80 | 256 | 3.0 | 12.0 | 0.00 | 0.00 | 0.00 | 34 | 1010.0 |
| 20260505164601 | 80 | 236 | 4.0 | 11.0 | 0.00 | 0.00 | 0.00 | 37 | 1010.2 |
| 20260505163100 | 80 | 211 | 2.0 | 12.0 | 0.00 | 0.00 | 0.00 | 37 | 1010.3 |
| 20260505161553 | 80 | 0 | 3.0 | 10.0 | 0.00 | 0.00 | 0.00 | 39 | 1010.3 |
| 20260505153109 | 78 | 219 | 3.0 | 12.0 | 0.00 | 0.00 | 0.00 | 38 | 1010.7 |
| 20260505151557 | 77 | 238 | 3.0 | 9.0 | 0.00 | 0.00 | 0.00 | 42 | 1010.8 |
| 20260505124552 | 66 | 0 | 2.0 | 12.0 | 0.00 | 0.00 | 0.00 | 55 | 1011.8 |
| 20260505123104 | 65 | 0 | 1.0 | 6.0 | 0.00 | 0.00 | 0.00 | 56 | 1011.7 |
| 20260505121556 | 64 | 0 | 0.0 | 8.0 | 0.00 | 0.00 | 0.00 | 61 | 1011.5 |
| 20260505120050 | 62 | 0 | 1.0 | 7.0 | 0.00 | 0.00 | 0.00 | 63 | 1011.4 |
| 20260505114552 | 60 | 0 | 0.0 | 0.0 | 0.00 | 0.00 | 0.00 | 71 | 1011.4 |
| 20260505113055 | 57 | 0 | 0.0 | 0.0 | 0.00 | 0.00 | 0.00 | 79 | 1011.5 |
| 20260505111557 | 54 | 0 | 0.0 | 0.0 | 0.00 | 0.00 | 0.00 | 80 | 1011.2 |
| 20260505101603 | 53 | 0 | 0.0 | 0.0 | 0.00 | 0.00 | 0.00 | 76 | 1011.0 |
| 20260505100055 | 54 | 0 | 0.0 | 0.0 | 0.00 | 0.00 | 0.00 | 75 | 1010.8 |
| 20260505094553 | 54 | 0 | 0.0 | 0.0 | 0.00 | 0.00 | 0.00 | 75 | 1010.5 |
| 20260505093051 | 54 | 0 | 0.0 | 0.0 | 0.00 | 0.00 | 0.00 | 74 | 1010.6 |
| 20260505091557 | 54 | 0 | 0.0 | 0.0 | 0.00 | 0.00 | 0.00 | 74 | 1010.6 |
| 20260505090101 | 54 | 0 | 0.0 | 0.0 | 0.00 | 0.00 | 0.00 | 72 | 1010.3 |
| 20260505084552 | 55 | 0 | 0.0 | 0.0 | 0.00 | 0.00 | 0.00 | 71 | 1010.2 |
| 20260505083054 | 56 | 0 | 0.0 | 0.0 | 0.00 | 0.00 | 0.00 | 70 | 1010.4 |
| 20260505081602 | 56 | 0 | 0.0 | 0.0 | 0.00 | 0.00 | 0.00 | 69 | 1010.4 |
| 20260505080055 | 56 | 0 | 0.0 | 0.0 | 0.00 | 0.00 | 0.00 | 68 | 1010.4 |
| 20260505074607 | 57 | 0 | 0.0 | 0.0 | 0.00 | 0.00 | 0.00 | 68 | 1010.6 |
| 20260505073054 | 57 | 0 | 0.0 | 0.0 | 0.00 | 0.00 | 0.00 | 66 | 1010.5 |
| 20260505071554 | 58 | 0 | 0.0 | 0.0 | 0.00 | 0.00 | 0.00 | 64 | 1010.4 |
| 20260505070055 | 58 | 0 | 0.0 | 3.0 | 0.00 | 0.00 | 0.00 | 63 | 1010.5 |
| 20260505064556 | 58 | 0 | 0.0 | 0.0 | 0.00 | 0.00 | 0.00 | 62 | 1010.5 |
| 20260505063057 | 59 | 0 | 0.0 | 3.0 | 0.00 | 0.00 | 0.00 | 61 | 1010.4 |
| 20260505061618 | 59 | 0 | 0.0 | 4.0 | 0.00 | 0.00 | 0.00 | 60 | 1010.4 |
| 20260505060053 | 60 | 0 | 0.0 | 8.0 | 0.00 | 0.00 | 0.00 | 58 | 1010.4 |
| 20260505054616 | 60 | 0 | 0.0 | 5.0 | 0.00 | 0.00 | 0.00 | 58 | 1010.4 |
| 20260505053051 | 60 | 0 | 0.0 | 5.0 | 0.00 | 0.00 | 0.00 | 57 | 1010.4 |
| 20260505051558 | 60 | 0 | 0.0 | 6.0 | 0.00 | 0.00 | 0.00 | 55 | 1010.5 |
| 20260505050105 | 61 | 0 | 0.0 | 8.0 | 0.00 | 0.00 | 0.00 | 54 | 1010.4 |
| 20260505041558 | 59 | 0 | 0.0 | 6.0 | 0.00 | 0.00 | 0.00 | 53 | 1010.5 |
| 20260505040100 | 59 | 0 | 0.0 | 2.0 | 0.00 | 0.00 | 0.00 | 53 | 1010.4 |
| 20260505034553 | 59 | 0 | 0.0 | 0.0 | 0.00 | 0.00 | 0.00 | 53 | 1010.4 |
| 20260505033055 | 59 | 0 | 0.0 | 3.0 | 0.00 | 0.00 | 0.00 | 53 | 1010.4 |
| 20260505031601 | 59 | 0 | 0.0 | 0.0 | 0.00 | 0.00 | 0.00 | 53 | 1010.4 |
| 20260505030056 | 58 | 0 | 0.0 | 0.0 | 0.00 | 0.00 | 0.00 | 55 | 1010.3 |
| 20260505024607 | 58 | 0 | 0.0 | 0.0 | 0.00 | 0.00 | 0.00 | 56 | 1010.5 |
| 20260505023054 | 58 | 0 | 0.0 | 0.0 | 0.00 | 0.00 | 0.00 | 56 | 1010.7 |
| 20260505021609 | 59 | 0 | 0.0 | 0.0 | 0.00 | 0.00 | 0.00 | 54 | 1010.7 |
| 20260505020055 | 60 | 0 | 0.0 | 0.0 | 0.00 | 0.00 | 0.00 | 51 | 1010.7 |
| 20260505014555 | 59 | 0 | 0.0 | 0.0 | 0.00 | 0.00 | 0.00 | 51 | 1010.6 |
| 20260505013058 | 60 | 0 | 0.0 | 0.0 | 0.00 | 0.00 | 0.00 | 50 | 1010.5 |
| 20260505011558 | 61 | 0 | 0.0 | 0.0 | 0.00 | 0.00 | 0.00 | 48 | 1010.4 |
| 20260505010057 | 62 | 0 | 0.0 | 0.0 | 0.00 | 0.00 | 0.00 | 45 | 1010.2 |
| 20260505004557 | 63 | 0 | 0.0 | 0.0 | 0.00 | 0.00 | 0.00 | 43 | 1010.0 |
| 20260505003054 | 65 | 0 | 0.0 | 0.0 | 0.00 | 0.00 | 0.00 | 40 | 1010.0 |
| 20260505001557 | 66 | 0 | 0.0 | 0.0 | 0.00 | 0.00 | 0.00 | 39 | 1009.9 |
| 20260505000059 | 67 | 0 | 0.0 | 5.0 | 0.00 | 0.00 | 0.00 | 37 | 1009.7 |
| 20260504234555 | 67 | 0 | 0.0 | 9.0 | 0.00 | 0.00 | 0.00 | 37 | 1009.8 |
| 20260504233102 | 68 | 0 | 0.0 | 8.0 | 0.00 | 0.00 | 0.00 | 35 | 1009.6 |
| 20260504231556 | 69 | 200 | 3.0 | 13.0 | 0.00 | 0.00 | 0.00 | 33 | 1009.5 |
| 20260504230058 | 69 | 0 | 1.0 | 11.0 | 0.00 | 0.00 | 0.00 | 33 | 1009.5 |
| 20260504224554 | 69 | 0 | 0.0 | 10.0 | 0.00 | 0.00 | 0.00 | 35 | 1009.4 |
| 20260504223102 | 70 | 0 | 2.0 | 12.0 | 0.00 | 0.00 | 0.00 | 33 | 1009.4 |
| 20260504221606 | 70 | 0 | 2.0 | 12.0 | 0.00 | 0.00 | 0.00 | 33 | 1009.6 |
| 20260504220136 | 72 | 198 | 1.0 | 8.0 | 0.00 | 0.00 | 0.00 | 32 | 1009.7 |
| 20260504214558 | 72 | 0 | 1.0 | 14.0 | 0.00 | 0.00 | 0.00 | 34 | 1009.6 |
| 20260504213126 | 72 | 0 | 4.0 | 13.0 | 0.00 | 0.00 | 0.00 | 31 | 1009.6 |
| 20260504211558 | 72 | 211 | 0.0 | 13.0 | 0.00 | 0.00 | 0.00 | 32 | 1009.6 |
| 20260504210101 | 73 | 173 | 1.0 | 11.0 | 0.00 | 0.00 | 0.00 | 31 | 1009.6 |
| 20260504204603 | 73 | 250 | 1.0 | 9.0 | 0.00 | 0.00 | 0.00 | 30 | 1009.8 |
| 20260504203053 | 72 | 207 | 3.0 | 14.0 | 0.00 | 0.00 | 0.00 | 31 | 1009.9 |
| 20260504201554 | 72 | 259 | 6.0 | 15.0 | 0.00 | 0.00 | 0.00 | 32 | 1010.0 |
| 20260504200110 | 72 | 213 | 4.0 | 13.0 | 0.00 | 0.00 | 0.00 | 31 | 1010.1 |
| 20260504194549 | 72 | 273 | 2.0 | 15.0 | 0.00 | 0.00 | 0.00 | 31 | 1010.2 |
| 20260504193051 | 72 | 225 | 2.0 | 15.0 | 0.00 | 0.00 | 0.00 | 31 | 1010.2 |
| 20260504191559 | 72 | 128 | 0.0 | 10.0 | 0.00 | 0.00 | 0.00 | 31 | 1010.2 |
| 20260504190054 | 71 | 242 | 4.0 | 13.0 | 0.00 | 0.00 | 0.00 | 34 | 1010.4 |
| 20260504184600 | 71 | 225 | 2.0 | 14.0 | 0.00 | 0.00 | 0.00 | 29 | 1010.7 |
| 20260504183051 | 71 | 242 | 4.0 | 12.0 | 0.00 | 0.00 | 0.00 | 30 | 1011.0 |
| 20260504181553 | 70 | 0 | 2.0 | 13.0 | 0.00 | 0.00 | 0.00 | 35 | 1011.0 |
| 20260504180055 | 69 | 202 | 4.0 | 13.0 | 0.00 | 0.00 | 0.00 | 33 | 1011.4 |
| 20260504174556 | 70 | 0 | 4.0 | 12.0 | 0.00 | 0.00 | 0.00 | 34 | 1011.6 |
| 20260504173100 | 69 | 208 | 3.0 | 13.0 | 0.00 | 0.00 | 0.00 | 34 | 1011.8 |
| 20260504171556 | 68 | 268 | 2.0 | 15.0 | 0.00 | 0.00 | 0.00 | 37 | 1012.0 |
| 20260504160106 | 66 | 212 | 3.0 | 11.0 | 0.00 | 0.00 | 0.00 | 36 | 1013.0 |